UAE508 OMDB-VABB
Flight info
| Callsign | UAE508 |
|---|---|
| Flight time | N/A |
| Altitude | 37000 |
| Route | IVURO DCT LALDO B505 NADSO A777 VAXIM L301 KARKU DCT EXOLU POKON2A |
| Aircraft | B77W/H-SDE1E2E3FGHIJ2J3J4J5M1RWXY/LB1D1 |
Departure
| Time | 2026-04-24 11:22 |
|---|---|
| Airport | Dubai International Airport (OMDB) |
Arrival
| Time | N/A |
|---|---|
| Airport | Chhatrapati Shivaji Maharaj International Airport (VABB) |
| Time | Latitude | Longitude | Altitude | Speed | Heading |
|---|---|---|---|---|---|
| 2026-04-24 10:49 | 25.24594 | 55.36432 | 27 ft | 0 kts | 32° |
| 2026-04-24 11:00 | 25.24593 | 55.36432 | 27 ft | 0 kts | 32° |
| 2026-04-24 11:09 | 25.24589 | 55.36429 | 27 ft | 2 kts | 32° |
| 2026-04-24 11:09 | 25.24573 | 55.36418 | 26 ft | 3 kts | 32° |
| 2026-04-24 11:09 | 25.24556 | 55.36406 | 25 ft | 3 kts | 32° |
| 2026-04-24 11:09 | 25.24542 | 55.36397 | 25 ft | 3 kts | 38° |
| 2026-04-24 11:10 | 25.24529 | 55.36384 | 26 ft | 3 kts | 59° |
| 2026-04-24 11:10 | 25.24524 | 55.36371 | 24 ft | 3 kts | 90° |
| 2026-04-24 11:10 | 25.24526 | 55.36356 | 24 ft | 3 kts | 120° |
| 2026-04-24 11:10 | 25.24537 | 55.36337 | 25 ft | 3 kts | 124° |
| 2026-04-24 11:11 | 25.24544 | 55.36325 | 24 ft | 0 kts | 120° |
| 2026-04-24 11:14 | 25.24544 | 55.36326 | 24 ft | 0 kts | 120° |
| 2026-04-24 11:15 | 25.24537 | 55.36339 | 25 ft | 6 kts | 120° |
| 2026-04-24 11:15 | 25.24515 | 55.36380 | 25 ft | 12 kts | 120° |
| 2026-04-24 11:15 | 25.24460 | 55.36489 | 27 ft | 19 kts | 113° |
| 2026-04-24 11:15 | 25.24469 | 55.36631 | 27 ft | 19 kts | 59° |
| 2026-04-24 11:16 | 25.24572 | 55.36724 | 27 ft | 19 kts | 32° |
| 2026-04-24 11:16 | 25.24677 | 55.36794 | 27 ft | 15 kts | 30° |
| 2026-04-24 11:16 | 25.24729 | 55.36881 | 27 ft | 15 kts | 106° |
| 2026-04-24 11:16 | 25.24677 | 55.36982 | 27 ft | 15 kts | 122° |
| 2026-04-24 11:17 | 25.24614 | 55.37095 | 27 ft | 19 kts | 121° |
| 2026-04-24 11:17 | 25.24538 | 55.37233 | 27 ft | 19 kts | 121° |
| 2026-04-24 11:17 | 25.24467 | 55.37360 | 27 ft | 19 kts | 122° |
| 2026-04-24 11:17 | 25.24397 | 55.37485 | 27 ft | 19 kts | 121° |
| 2026-04-24 11:18 | 25.24327 | 55.37612 | 27 ft | 19 kts | 121° |
| 2026-04-24 11:18 | 25.24267 | 55.37724 | 27 ft | 11 kts | 116° |
| 2026-04-24 11:18 | 25.24281 | 55.37780 | 27 ft | 8 kts | 43° |
| 2026-04-24 11:18 | 25.24326 | 55.37814 | 27 ft | 8 kts | 34° |
| 2026-04-24 11:19 | 25.24369 | 55.37845 | 27 ft | 7 kts | 33° |
| 2026-04-24 11:19 | 25.24430 | 55.37891 | 27 ft | 17 kts | 34° |
| 2026-04-24 11:19 | 25.24553 | 55.37983 | 27 ft | 21 kts | 34° |
| 2026-04-24 11:19 | 25.24639 | 55.38046 | 27 ft | 10 kts | 32° |
| 2026-04-24 11:20 | 25.24670 | 55.38067 | 27 ft | 8 kts | 31° |
| 2026-04-24 11:20 | 25.24731 | 55.38101 | 27 ft | 10 kts | 11° |
| 2026-04-24 11:20 | 25.24786 | 55.38065 | 27 ft | 1 kts | 304° |
| 2026-04-24 11:20 | 25.24792 | 55.38055 | 27 ft | 10 kts | 304° |
| 2026-04-24 11:21 | 25.24907 | 55.37850 | 27 ft | 63 kts | 300° |
| 2026-04-24 11:21 | 25.25249 | 55.37232 | 27 ft | 125 kts | 301° |
| 2026-04-24 11:21 | 25.25796 | 55.36242 | 47 ft | 172 kts | 301° |
| 2026-04-24 11:21 | 25.26423 | 55.35101 | 563 ft | 174 kts | 304° |
| 2026-04-24 11:22 | 25.27070 | 55.33953 | 1073 ft | 181 kts | 304° |
| 2026-04-24 11:22 | 25.27762 | 55.32746 | 1679 ft | 185 kts | 305° |
| 2026-04-24 11:22 | 25.28474 | 55.31572 | 2330 ft | 190 kts | 306° |
| 2026-04-24 11:22 | 25.29214 | 55.30271 | 2640 ft | 212 kts | 304° |
| 2026-04-24 11:23 | 25.30398 | 55.29245 | 2928 ft | 227 kts | 345° |
| 2026-04-24 11:23 | 25.32034 | 55.29223 | 3257 ft | 247 kts | 5° |
| 2026-04-24 11:23 | 25.33831 | 55.29397 | 3585 ft | 269 kts | 1° |
| 2026-04-24 11:23 | 25.35725 | 55.29520 | 4367 ft | 276 kts | 1° |
| 2026-04-24 11:24 | 25.37664 | 55.29617 | 5065 ft | 282 kts | 1° |
| 2026-04-24 11:24 | 25.39600 | 55.30068 | 5655 ft | 292 kts | 26° |
| 2026-04-24 11:24 | 25.41173 | 55.31487 | 6342 ft | 295 kts | 50° |
| 2026-04-24 11:24 | 25.42470 | 55.33274 | 6974 ft | 300 kts | 51° |
| 2026-04-24 11:25 | 25.43757 | 55.35094 | 7700 ft | 300 kts | 56° |
| 2026-04-24 11:25 | 25.44493 | 55.37252 | 8265 ft | 305 kts | 88° |
| 2026-04-24 11:25 | 25.44398 | 55.39564 | 8863 ft | 306 kts | 97° |
| 2026-04-24 11:25 | 25.44195 | 55.41934 | 9577 ft | 310 kts | 97° |
| 2026-04-24 11:26 | 25.44006 | 55.44318 | 10291 ft | 313 kts | 96° |
| 2026-04-24 11:26 | 25.43832 | 55.46789 | 10647 ft | 334 kts | 96° |
| 2026-04-24 11:26 | 25.43666 | 55.49450 | 10842 ft | 360 kts | 95° |
| 2026-04-24 11:26 | 25.43504 | 55.52325 | 11051 ft | 385 kts | 95° |
| 2026-04-24 11:27 | 25.43346 | 55.55325 | 11627 ft | 396 kts | 95° |
| 2026-04-24 11:27 | 25.43191 | 55.58395 | 12427 ft | 402 kts | 95° |
| 2026-04-24 11:27 | 25.43035 | 55.61506 | 13308 ft | 407 kts | 95° |
| 2026-04-24 11:27 | 25.42875 | 55.64647 | 14102 ft | 412 kts | 95° |
| 2026-04-24 11:28 | 25.42705 | 55.67830 | 14864 ft | 416 kts | 96° |
| 2026-04-24 11:28 | 25.42336 | 55.71027 | 15605 ft | 421 kts | 103° |
| 2026-04-24 11:28 | 25.41672 | 55.74152 | 16344 ft | 426 kts | 106° |
| 2026-04-24 11:28 | 25.40950 | 55.77347 | 17104 ft | 431 kts | 105° |
| 2026-04-24 11:29 | 25.40236 | 55.80595 | 17861 ft | 437 kts | 105° |
| 2026-04-24 11:29 | 25.39532 | 55.83874 | 18519 ft | 443 kts | 105° |
| 2026-04-24 11:29 | 25.38824 | 55.87213 | 19167 ft | 448 kts | 105° |
| 2026-04-24 11:29 | 25.38106 | 55.90583 | 19827 ft | 453 kts | 105° |
| 2026-04-24 11:30 | 25.37379 | 55.93989 | 20485 ft | 458 kts | 105° |
| 2026-04-24 11:30 | 25.36642 | 55.97436 | 21141 ft | 462 kts | 105° |
| 2026-04-24 11:30 | 25.35899 | 56.00911 | 21778 ft | 467 kts | 105° |
| 2026-04-24 11:30 | 25.35148 | 56.04429 | 22398 ft | 472 kts | 105° |
| 2026-04-24 11:31 | 25.34391 | 56.07972 | 23010 ft | 476 kts | 105° |
| 2026-04-24 11:31 | 25.33623 | 56.11557 | 23568 ft | 481 kts | 105° |
| 2026-04-24 11:31 | 25.32910 | 56.15184 | 24047 ft | 486 kts | 101° |
| 2026-04-24 11:31 | 25.32493 | 56.18903 | 24548 ft | 490 kts | 95° |
| 2026-04-24 11:32 | 25.32291 | 56.22643 | 25069 ft | 493 kts | 94° |
| 2026-04-24 11:32 | 25.32113 | 56.26446 | 25545 ft | 497 kts | 94° |
| 2026-04-24 11:32 | 25.31925 | 56.30284 | 25989 ft | 501 kts | 94° |
| 2026-04-24 11:32 | 25.31721 | 56.34150 | 26501 ft | 504 kts | 94° |
| 2026-04-24 11:33 | 25.31504 | 56.37983 | 26955 ft | 508 kts | 94° |
| 2026-04-24 11:33 | 25.31274 | 56.41913 | 27402 ft | 511 kts | 94° |
| 2026-04-24 11:33 | 25.31040 | 56.45845 | 27855 ft | 515 kts | 94° |
| 2026-04-24 11:33 | 25.30806 | 56.49801 | 28322 ft | 518 kts | 94° |
| 2026-04-24 11:34 | 25.30567 | 56.53778 | 28758 ft | 520 kts | 95° |
| 2026-04-24 11:34 | 25.30112 | 56.57758 | 29151 ft | 523 kts | 101° |
| 2026-04-24 11:34 | 25.29307 | 56.61687 | 29542 ft | 526 kts | 106° |
| 2026-04-24 11:34 | 25.28208 | 56.65534 | 30021 ft | 525 kts | 112° |
| 2026-04-24 11:35 | 25.26824 | 56.69258 | 30495 ft | 523 kts | 114° |
| 2026-04-24 11:35 | 25.25391 | 56.72956 | 30965 ft | 522 kts | 114° |
| 2026-04-24 11:35 | 25.23953 | 56.76640 | 31404 ft | 522 kts | 114° |
| 2026-04-24 11:35 | 25.22522 | 56.80322 | 31825 ft | 522 kts | 114° |
| 2026-04-24 11:36 | 25.21098 | 56.84015 | 32244 ft | 522 kts | 114° |
| 2026-04-24 11:36 | 25.19682 | 56.87718 | 32667 ft | 522 kts | 114° |
| 2026-04-24 11:36 | 25.18276 | 56.91408 | 33080 ft | 522 kts | 114° |
| 2026-04-24 11:36 | 25.16874 | 56.95098 | 33485 ft | 521 kts | 114° |
| 2026-04-24 11:37 | 25.15470 | 56.98790 | 33881 ft | 521 kts | 114° |
| 2026-04-24 11:37 | 25.14087 | 57.02426 | 34190 ft | 522 kts | 114° |
| 2026-04-24 11:37 | 25.12674 | 57.06133 | 34468 ft | 523 kts | 114° |
| 2026-04-24 11:37 | 25.11261 | 57.09833 | 34748 ft | 524 kts | 114° |
| 2026-04-24 11:38 | 25.09845 | 57.13539 | 35032 ft | 525 kts | 114° |
| 2026-04-24 11:38 | 25.08424 | 57.17251 | 35311 ft | 526 kts | 113° |
| 2026-04-24 11:38 | 25.06997 | 57.20978 | 35579 ft | 527 kts | 113° |
| 2026-04-24 11:38 | 25.05571 | 57.24699 | 35844 ft | 528 kts | 113° |
| 2026-04-24 11:39 | 25.04138 | 57.28435 | 36094 ft | 529 kts | 113° |
| 2026-04-24 11:39 | 25.02706 | 57.32166 | 36349 ft | 529 kts | 113° |
| 2026-04-24 11:39 | 25.01268 | 57.35907 | 36601 ft | 530 kts | 113° |
| 2026-04-24 11:39 | 24.99827 | 57.39655 | 36740 ft | 533 kts | 113° |
| 2026-04-24 11:40 | 24.96925 | 57.47190 | 36804 ft | 534 kts | 113° |
| 2026-04-24 11:40 | 24.94029 | 57.54697 | 36794 ft | 531 kts | 113° |
| 2026-04-24 11:41 | 24.91140 | 57.62172 | 36802 ft | 529 kts | 113° |
| 2026-04-24 11:41 | 24.88255 | 57.69625 | 36802 ft | 529 kts | 113° |
| 2026-04-24 11:42 | 24.85950 | 57.75573 | 36805 ft | 530 kts | 113° |
| 2026-04-24 11:42 | 24.83053 | 57.83031 | 36800 ft | 529 kts | 113° |
| 2026-04-24 11:43 | 24.79944 | 57.90372 | 36800 ft | 528 kts | 116° |
| 2026-04-24 11:43 | 24.76702 | 57.97603 | 36799 ft | 527 kts | 116° |
| 2026-04-24 11:44 | 24.73484 | 58.04834 | 36804 ft | 527 kts | 116° |
| 2026-04-24 11:44 | 24.70292 | 58.12096 | 36803 ft | 527 kts | 116° |
| 2026-04-24 11:45 | 24.67111 | 58.19353 | 36801 ft | 527 kts | 116° |
| 2026-04-24 11:45 | 24.63927 | 58.26597 | 36800 ft | 525 kts | 116° |
| 2026-04-24 11:46 | 24.60739 | 58.33831 | 36812 ft | 526 kts | 116° |
| 2026-04-24 11:46 | 24.57541 | 58.41074 | 36800 ft | 526 kts | 116° |
| 2026-04-24 11:47 | 24.54344 | 58.48305 | 36795 ft | 526 kts | 116° |
| 2026-04-24 11:47 | 24.51146 | 58.55527 | 36815 ft | 526 kts | 116° |
| 2026-04-24 11:48 | 24.47963 | 58.62704 | 36806 ft | 526 kts | 116° |
| 2026-04-24 11:48 | 24.44758 | 58.69922 | 36794 ft | 526 kts | 116° |
| 2026-04-24 11:49 | 24.41549 | 58.77135 | 36805 ft | 526 kts | 116° |
| 2026-04-24 11:49 | 24.38339 | 58.84361 | 36804 ft | 525 kts | 115° |
| 2026-04-24 11:50 | 24.35141 | 58.91564 | 36801 ft | 525 kts | 115° |
| 2026-04-24 11:50 | 24.31936 | 58.98769 | 36802 ft | 525 kts | 115° |
| 2026-04-24 11:51 | 24.28752 | 59.05915 | 36787 ft | 525 kts | 115° |
| 2026-04-24 11:51 | 24.25549 | 59.13091 | 36794 ft | 523 kts | 115° |
| 2026-04-24 11:52 | 24.22357 | 59.20231 | 36798 ft | 522 kts | 115° |